sensor_id;sensor_type;location;lat;lon;timestamp;P1;durP1;ratioP1;P2;durP2;ratioP2
45618;SDS011;31343;47.520;19.144;2022-12-22T00:01:12;48.33;;;25.90;;
45618;SDS011;31343;47.520;19.144;2022-12-22T00:03:57;49.22;;;26.15;;
45618;SDS011;31343;47.520;19.144;2022-12-22T00:06:42;55.00;;;27.73;;
45618;SDS011;31343;47.520;19.144;2022-12-22T00:09:26;46.10;;;25.58;;
45618;SDS011;31343;47.520;19.144;2022-12-22T00:12:10;50.58;;;25.77;;
45618;SDS011;31343;47.520;19.144;2022-12-22T00:14:57;52.63;;;26.17;;
45618;SDS011;31343;47.520;19.144;2022-12-22T00:17:42;48.58;;;27.20;;
45618;SDS011;31343;47.520;19.144;2022-12-22T00:20:26;59.03;;;29.25;;
45618;SDS011;31343;47.520;19.144;2022-12-22T00:23:10;59.58;;;28.80;;
45618;SDS011;31343;47.520;19.144;2022-12-22T00:25:55;48.78;;;26.13;;
45618;SDS011;31343;47.520;19.144;2022-12-22T00:28:41;54.50;;;28.10;;
45618;SDS011;31343;47.520;19.144;2022-12-22T00:34:17;59.80;;;30.80;;
45618;SDS011;31343;47.520;19.144;2022-12-22T00:37:04;60.10;;;28.98;;
45618;SDS011;31343;47.520;19.144;2022-12-22T00:39:48;55.75;;;30.45;;
45618;SDS011;31343;47.520;19.144;2022-12-22T00:42:33;72.75;;;32.38;;
45618;SDS011;31343;47.520;19.144;2022-12-22T00:45:18;63.30;;;31.40;;
45618;SDS011;31343;47.520;19.144;2022-12-22T00:48:02;51.53;;;26.85;;
45618;SDS011;31343;47.520;19.144;2022-12-22T00:53:31;53.78;;;27.00;;
45618;SDS011;31343;47.520;19.144;2022-12-22T00:56:16;60.40;;;29.97;;
45618;SDS011;31343;47.520;19.144;2022-12-22T00:59:00;61.95;;;28.25;;
45618;SDS011;31343;47.520;19.144;2022-12-22T01:01:45;65.50;;;29.95;;
45618;SDS011;31343;47.520;19.144;2022-12-22T01:04:30;55.42;;;28.05;;
45618;SDS011;31343;47.520;19.144;2022-12-22T01:07:15;57.08;;;26.90;;
45618;SDS011;31343;47.520;19.144;2022-12-22T01:10:01;56.17;;;28.40;;
45618;SDS011;31343;47.520;19.144;2022-12-22T01:12:46;58.03;;;28.55;;
45618;SDS011;31343;47.520;19.144;2022-12-22T01:15:30;56.85;;;31.52;;
45618;SDS011;31343;47.520;19.144;2022-12-22T01:18:15;49.33;;;26.83;;
45618;SDS011;31343;47.520;19.144;2022-12-22T01:20:59;62.05;;;28.90;;
45618;SDS011;31343;47.520;19.144;2022-12-22T01:23:45;66.80;;;28.70;;
45618;SDS011;31343;47.520;19.144;2022-12-22T01:29:14;61.67;;;29.77;;
45618;SDS011;31343;47.520;19.144;2022-12-22T01:31:59;58.95;;;27.70;;
45618;SDS011;31343;47.520;19.144;2022-12-22T01:37:27;51.05;;;26.98;;
45618;SDS011;31343;47.520;19.144;2022-12-22T01:40:18;55.95;;;27.92;;
45618;SDS011;31343;47.520;19.144;2022-12-22T01:46:29;50.05;;;26.05;;
45618;SDS011;31343;47.520;19.144;2022-12-22T01:52:11;46.28;;;25.60;;
45618;SDS011;31343;47.520;19.144;2022-12-22T01:54:58;47.80;;;25.75;;
45618;SDS011;31343;47.520;19.144;2022-12-22T01:57:46;48.70;;;27.02;;
45618;SDS011;31343;47.520;19.144;2022-12-22T02:00:30;55.10;;;27.80;;
45618;SDS011;31343;47.520;19.144;2022-12-22T02:03:15;47.37;;;25.13;;
45618;SDS011;31343;47.520;19.144;2022-12-22T02:06:11;51.25;;;27.20;;
45618;SDS011;31343;47.520;19.144;2022-12-22T02:15:47;57.45;;;25.00;;
45618;SDS011;31343;47.520;19.144;2022-12-22T02:19:01;45.35;;;24.90;;
45618;SDS011;31343;47.520;19.144;2022-12-22T02:22:20;45.13;;;25.05;;
45618;SDS011;31343;47.520;19.144;2022-12-22T02:25:29;48.65;;;25.33;;
45618;SDS011;31343;47.520;19.144;2022-12-22T02:28:25;53.97;;;26.40;;
45618;SDS011;31343;47.520;19.144;2022-12-22T02:31:10;51.40;;;27.40;;
45618;SDS011;31343;47.520;19.144;2022-12-22T02:33:54;53.13;;;26.00;;
45618;SDS011;31343;47.520;19.144;2022-12-22T02:36:41;53.50;;;27.27;;
45618;SDS011;31343;47.520;19.144;2022-12-22T02:42:42;53.92;;;24.52;;
45618;SDS011;31343;47.520;19.144;2022-12-22T02:48:50;45.25;;;24.13;;
45618;SDS011;31343;47.520;19.144;2022-12-22T02:51:49;47.00;;;25.17;;
45618;SDS011;31343;47.520;19.144;2022-12-22T02:54:40;52.63;;;25.98;;
45618;SDS011;31343;47.520;19.144;2022-12-22T02:57:26;44.03;;;25.08;;
45618;SDS011;31343;47.520;19.144;2022-12-22T03:00:11;55.33;;;26.52;;
45618;SDS011;31343;47.520;19.144;2022-12-22T03:02:55;51.53;;;27.10;;
45618;SDS011;31343;47.520;19.144;2022-12-22T03:05:39;45.13;;;23.73;;
45618;SDS011;31343;47.520;19.144;2022-12-22T03:08:23;45.67;;;23.83;;
45618;SDS011;31343;47.520;19.144;2022-12-22T03:11:08;47.78;;;25.60;;
45618;SDS011;31343;47.520;19.144;2022-12-22T03:13:52;46.92;;;23.83;;
45618;SDS011;31343;47.520;19.144;2022-12-22T03:16:36;47.17;;;25.63;;
45618;SDS011;31343;47.520;19.144;2022-12-22T03:19:20;48.83;;;24.52;;
45618;SDS011;31343;47.520;19.144;2022-12-22T03:22:04;49.67;;;25.38;;
45618;SDS011;31343;47.520;19.144;2022-12-22T03:24:48;47.20;;;26.33;;
45618;SDS011;31343;47.520;19.144;2022-12-22T03:27:32;53.13;;;25.40;;
45618;SDS011;31343;47.520;19.144;2022-12-22T03:29:58;52.90;;;25.80;;
45618;SDS011;31343;47.520;19.144;2022-12-22T03:32:23;47.92;;;26.27;;
45618;SDS011;31343;47.520;19.144;2022-12-22T03:34:49;54.47;;;27.05;;
45618;SDS011;31343;47.520;19.144;2022-12-22T03:37:15;51.05;;;25.80;;
45618;SDS011;31343;47.520;19.144;2022-12-22T03:39:41;51.42;;;26.40;;
45618;SDS011;31343;47.520;19.144;2022-12-22T03:42:09;47.00;;;25.38;;
45618;SDS011;31343;47.520;19.144;2022-12-22T03:44:54;50.05;;;25.00;;
45618;SDS011;31343;47.520;19.144;2022-12-22T03:47:38;52.88;;;27.52;;
45618;SDS011;31343;47.520;19.144;2022-12-22T03:50:04;52.03;;;24.90;;
45618;SDS011;31343;47.520;19.144;2022-12-22T03:52:30;45.28;;;24.42;;
45618;SDS011;31343;47.520;19.144;2022-12-22T03:54:56;53.78;;;26.60;;
45618;SDS011;31343;47.520;19.144;2022-12-22T03:57:21;57.50;;;26.95;;
45618;SDS011;31343;47.520;19.144;2022-12-22T03:59:47;48.58;;;25.90;;
45618;SDS011;31343;47.520;19.144;2022-12-22T04:02:13;51.50;;;27.25;;
45618;SDS011;31343;47.520;19.144;2022-12-22T04:04:39;51.67;;;26.35;;
45618;SDS011;31343;47.520;19.144;2022-12-22T04:07:04;46.38;;;26.60;;
45618;SDS011;31343;47.520;19.144;2022-12-22T04:09:31;52.85;;;26.85;;
45618;SDS011;31343;47.520;19.144;2022-12-22T04:11:57;50.97;;;25.40;;
45618;SDS011;31343;47.520;19.144;2022-12-22T04:14:42;54.50;;;27.17;;
45618;SDS011;31343;47.520;19.144;2022-12-22T04:17:07;50.10;;;26.80;;
45618;SDS011;31343;47.520;19.144;2022-12-22T04:19:33;53.25;;;27.90;;
45618;SDS011;31343;47.520;19.144;2022-12-22T04:21:59;55.78;;;28.05;;
45618;SDS011;31343;47.520;19.144;2022-12-22T04:24:25;49.80;;;25.33;;
45618;SDS011;31343;47.520;19.144;2022-12-22T04:26:51;55.70;;;28.30;;
45618;SDS011;31343;47.520;19.144;2022-12-22T04:29:17;53.95;;;29.17;;
45618;SDS011;31343;47.520;19.144;2022-12-22T04:31:43;50.92;;;25.98;;
45618;SDS011;31343;47.520;19.144;2022-12-22T04:34:09;50.97;;;27.17;;
45618;SDS011;31343;47.520;19.144;2022-12-22T04:36:35;45.45;;;25.90;;
45618;SDS011;31343;47.520;19.144;2022-12-22T04:39:00;49.90;;;25.35;;
45618;SDS011;31343;47.520;19.144;2022-12-22T04:41:26;45.03;;;26.65;;
45618;SDS011;31343;47.520;19.144;2022-12-22T04:43:52;55.90;;;26.02;;
45618;SDS011;31343;47.520;19.144;2022-12-22T04:46:17;53.00;;;26.13;;
45618;SDS011;31343;47.520;19.144;2022-12-22T04:48:43;52.05;;;26.90;;
45618;SDS011;31343;47.520;19.144;2022-12-22T04:51:09;52.22;;;27.15;;
45618;SDS011;31343;47.520;19.144;2022-12-22T04:53:35;49.28;;;26.13;;
45618;SDS011;31343;47.520;19.144;2022-12-22T04:56:02;49.15;;;25.83;;
45618;SDS011;31343;47.520;19.144;2022-12-22T04:58:30;48.65;;;25.65;;
45618;SDS011;31343;47.520;19.144;2022-12-22T05:00:56;50.50;;;25.90;;
45618;SDS011;31343;47.520;19.144;2022-12-22T05:03:32;50.60;;;26.67;;
45618;SDS011;31343;47.520;19.144;2022-12-22T05:05:57;48.17;;;25.60;;
45618;SDS011;31343;47.520;19.144;2022-12-22T05:08:23;45.72;;;24.10;;
45618;SDS011;31343;47.520;19.144;2022-12-22T05:10:49;60.85;;;27.50;;
45618;SDS011;31343;47.520;19.144;2022-12-22T05:13:14;52.80;;;26.52;;
45618;SDS011;31343;47.520;19.144;2022-12-22T05:15:40;48.92;;;26.77;;
45618;SDS011;31343;47.520;19.144;2022-12-22T05:18:06;54.90;;;27.55;;
45618;SDS011;31343;47.520;19.144;2022-12-22T05:20:33;53.50;;;27.83;;
45618;SDS011;31343;47.520;19.144;2022-12-22T05:23:00;50.72;;;26.75;;
45618;SDS011;31343;47.520;19.144;2022-12-22T05:25:25;49.95;;;26.13;;
45618;SDS011;31343;47.520;19.144;2022-12-22T05:27:51;51.15;;;26.50;;
45618;SDS011;31343;47.520;19.144;2022-12-22T05:30:17;50.92;;;25.17;;
45618;SDS011;31343;47.520;19.144;2022-12-22T05:32:43;50.08;;;26.27;;
45618;SDS011;31343;47.520;19.144;2022-12-22T05:35:09;56.50;;;27.23;;
45618;SDS011;31343;47.520;19.144;2022-12-22T05:37:35;51.42;;;27.58;;
45618;SDS011;31343;47.520;19.144;2022-12-22T05:40:01;49.45;;;26.45;;
45618;SDS011;31343;47.520;19.144;2022-12-22T05:42:27;46.63;;;25.23;;
45618;SDS011;31343;47.520;19.144;2022-12-22T05:47:30;44.42;;;23.50;;
45618;SDS011;31343;47.520;19.144;2022-12-22T05:49:56;46.47;;;23.98;;
45618;SDS011;31343;47.520;19.144;2022-12-22T05:52:22;48.85;;;25.50;;
45618;SDS011;31343;47.520;19.144;2022-12-22T05:54:48;52.35;;;25.85;;
45618;SDS011;31343;47.520;19.144;2022-12-22T05:57:13;60.38;;;26.70;;
45618;SDS011;31343;47.520;19.144;2022-12-22T05:59:39;56.85;;;27.25;;
45618;SDS011;31343;47.520;19.144;2022-12-22T06:02:05;48.22;;;25.58;;
45618;SDS011;31343;47.520;19.144;2022-12-22T06:04:31;52.28;;;26.67;;
45618;SDS011;31343;47.520;19.144;2022-12-22T06:06:57;54.35;;;25.60;;
45618;SDS011;31343;47.520;19.144;2022-12-22T06:09:23;51.25;;;25.52;;
45618;SDS011;31343;47.520;19.144;2022-12-22T06:11:49;45.03;;;26.05;;
45618;SDS011;31343;47.520;19.144;2022-12-22T06:14:14;59.47;;;28.85;;
45618;SDS011;31343;47.520;19.144;2022-12-22T06:16:40;56.40;;;27.42;;
45618;SDS011;31343;47.520;19.144;2022-12-22T06:19:06;47.13;;;26.55;;
45618;SDS011;31343;47.520;19.144;2022-12-22T06:21:31;50.10;;;26.77;;
45618;SDS011;31343;47.520;19.144;2022-12-22T06:23:57;52.00;;;25.90;;
45618;SDS011;31343;47.520;19.144;2022-12-22T06:26:23;61.63;;;27.13;;
45618;SDS011;31343;47.520;19.144;2022-12-22T06:28:49;49.88;;;25.88;;
45618;SDS011;31343;47.520;19.144;2022-12-22T06:31:15;52.53;;;24.58;;
45618;SDS011;31343;47.520;19.144;2022-12-22T06:33:40;50.20;;;24.83;;
45618;SDS011;31343;47.520;19.144;2022-12-22T06:36:06;55.30;;;25.60;;
45618;SDS011;31343;47.520;19.144;2022-12-22T06:38:33;48.80;;;26.00;;
45618;SDS011;31343;47.520;19.144;2022-12-22T06:40:59;52.75;;;25.05;;
45618;SDS011;31343;47.520;19.144;2022-12-22T06:43:25;55.85;;;25.92;;
45618;SDS011;31343;47.520;19.144;2022-12-22T06:45:51;50.45;;;25.95;;
45618;SDS011;31343;47.520;19.144;2022-12-22T06:48:17;52.03;;;26.38;;
45618;SDS011;31343;47.520;19.144;2022-12-22T06:50:43;56.90;;;27.95;;
45618;SDS011;31343;47.520;19.144;2022-12-22T06:53:09;54.22;;;26.83;;
45618;SDS011;31343;47.520;19.144;2022-12-22T06:55:35;53.38;;;28.05;;
45618;SDS011;31343;47.520;19.144;2022-12-22T06:58:01;54.17;;;25.45;;
45618;SDS011;31343;47.520;19.144;2022-12-22T07:00:28;59.70;;;28.58;;
45618;SDS011;31343;47.520;19.144;2022-12-22T07:02:53;56.58;;;28.83;;
45618;SDS011;31343;47.520;19.144;2022-12-22T07:05:19;53.08;;;26.70;;
45618;SDS011;31343;47.520;19.144;2022-12-22T07:07:45;52.85;;;26.52;;
45618;SDS011;31343;47.520;19.144;2022-12-22T07:10:11;55.03;;;27.67;;
45618;SDS011;31343;47.520;19.144;2022-12-22T07:12:37;58.90;;;29.05;;
45618;SDS011;31343;47.520;19.144;2022-12-22T07:15:03;55.13;;;26.77;;
45618;SDS011;31343;47.520;19.144;2022-12-22T07:17:29;52.90;;;26.23;;
45618;SDS011;31343;47.520;19.144;2022-12-22T07:19:54;47.95;;;25.30;;
45618;SDS011;31343;47.520;19.144;2022-12-22T07:22:20;56.67;;;27.95;;
45618;SDS011;31343;47.520;19.144;2022-12-22T07:24:47;54.70;;;28.27;;
45618;SDS011;31343;47.520;19.144;2022-12-22T07:27:14;53.80;;;26.20;;
45618;SDS011;31343;47.520;19.144;2022-12-22T07:29:40;49.55;;;27.02;;
45618;SDS011;31343;47.520;19.144;2022-12-22T07:32:06;61.50;;;28.85;;
45618;SDS011;31343;47.520;19.144;2022-12-22T07:34:32;56.83;;;27.75;;
45618;SDS011;31343;47.520;19.144;2022-12-22T07:36:58;49.78;;;26.35;;
45618;SDS011;31343;47.520;19.144;2022-12-22T07:39:23;57.35;;;27.60;;
45618;SDS011;31343;47.520;19.144;2022-12-22T07:41:49;56.33;;;27.27;;
45618;SDS011;31343;47.520;19.144;2022-12-22T07:44:33;55.40;;;26.83;;
45618;SDS011;31343;47.520;19.144;2022-12-22T07:46:59;51.58;;;25.98;;
45618;SDS011;31343;47.520;19.144;2022-12-22T07:49:25;52.60;;;26.90;;
45618;SDS011;31343;47.520;19.144;2022-12-22T07:52:09;56.07;;;27.80;;
45618;SDS011;31343;47.520;19.144;2022-12-22T07:54:34;54.33;;;28.75;;
45618;SDS011;31343;47.520;19.144;2022-12-22T07:57:00;53.97;;;29.00;;
45618;SDS011;31343;47.520;19.144;2022-12-22T07:59:26;53.70;;;26.38;;
45618;SDS011;31343;47.520;19.144;2022-12-22T08:01:52;58.80;;;28.58;;
45618;SDS011;31343;47.520;19.144;2022-12-22T08:04:17;49.53;;;24.63;;
45618;SDS011;31343;47.520;19.144;2022-12-22T08:06:43;55.05;;;28.10;;
45618;SDS011;31343;47.520;19.144;2022-12-22T08:09:12;53.50;;;26.35;;
45618;SDS011;31343;47.520;19.144;2022-12-22T08:11:40;59.95;;;27.58;;
45618;SDS011;31343;47.520;19.144;2022-12-22T08:14:06;54.17;;;26.30;;
45618;SDS011;31343;47.520;19.144;2022-12-22T08:16:32;58.35;;;29.38;;
45618;SDS011;31343;47.520;19.144;2022-12-22T08:18:58;46.03;;;26.23;;
45618;SDS011;31343;47.520;19.144;2022-12-22T08:21:23;57.42;;;28.65;;
45618;SDS011;31343;47.520;19.144;2022-12-22T08:23:50;52.30;;;27.27;;
45618;SDS011;31343;47.520;19.144;2022-12-22T08:26:34;66.53;;;28.90;;
45618;SDS011;31343;47.520;19.144;2022-12-22T08:29:12;50.30;;;27.98;;
45618;SDS011;31343;47.520;19.144;2022-12-22T08:31:41;51.70;;;28.95;;
45618;SDS011;31343;47.520;19.144;2022-12-22T08:34:08;64.32;;;29.88;;
45618;SDS011;31343;47.520;19.144;2022-12-22T08:36:38;54.78;;;25.95;;
45618;SDS011;31343;47.520;19.144;2022-12-22T08:39:11;56.45;;;27.35;;
45618;SDS011;31343;47.520;19.144;2022-12-22T08:41:38;57.20;;;28.40;;
45618;SDS011;31343;47.520;19.144;2022-12-22T08:44:25;59.03;;;28.60;;
45618;SDS011;31343;47.520;19.144;2022-12-22T08:46:53;57.92;;;29.02;;
45618;SDS011;31343;47.520;19.144;2022-12-22T08:49:19;59.78;;;28.40;;
45618;SDS011;31343;47.520;19.144;2022-12-22T08:51:46;57.65;;;27.92;;
45618;SDS011;31343;47.520;19.144;2022-12-22T08:54:12;58.70;;;27.73;;
45618;SDS011;31343;47.520;19.144;2022-12-22T08:56:38;57.55;;;27.58;;
45618;SDS011;31343;47.520;19.144;2022-12-22T08:59:04;54.40;;;28.63;;
45618;SDS011;31343;47.520;19.144;2022-12-22T09:01:32;48.35;;;26.83;;
45618;SDS011;31343;47.520;19.144;2022-12-22T09:04:00;52.53;;;27.02;;
45618;SDS011;31343;47.520;19.144;2022-12-22T09:06:27;57.70;;;29.92;;
45618;SDS011;31343;47.520;19.144;2022-12-22T09:08:57;65.50;;;29.77;;
45618;SDS011;31343;47.520;19.144;2022-12-22T09:11:26;56.97;;;29.67;;
45618;SDS011;31343;47.520;19.144;2022-12-22T09:13:54;58.70;;;29.40;;
45618;SDS011;31343;47.520;19.144;2022-12-22T09:16:22;57.38;;;28.40;;
45618;SDS011;31343;47.520;19.144;2022-12-22T09:18:48;50.28;;;28.23;;
45618;SDS011;31343;47.520;19.144;2022-12-22T09:21:14;61.25;;;29.38;;
45618;SDS011;31343;47.520;19.144;2022-12-22T09:23:40;55.97;;;28.70;;
45618;SDS011;31343;47.520;19.144;2022-12-22T09:26:07;58.10;;;28.58;;
45618;SDS011;31343;47.520;19.144;2022-12-22T09:28:37;61.72;;;30.17;;
45618;SDS011;31343;47.520;19.144;2022-12-22T09:31:03;58.50;;;29.20;;
45618;SDS011;31343;47.520;19.144;2022-12-22T09:33:30;51.83;;;27.35;;
45618;SDS011;31343;47.520;19.144;2022-12-22T09:35:57;52.42;;;28.17;;
45618;SDS011;31343;47.520;19.144;2022-12-22T09:38:26;67.82;;;31.13;;
45618;SDS011;31343;47.520;19.144;2022-12-22T09:40:53;60.53;;;27.77;;
45618;SDS011;31343;47.520;19.144;2022-12-22T09:43:25;58.33;;;28.42;;
45618;SDS011;31343;47.520;19.144;2022-12-22T09:45:54;59.55;;;27.77;;
45618;SDS011;31343;47.520;19.144;2022-12-22T09:48:22;60.17;;;28.08;;
45618;SDS011;31343;47.520;19.144;2022-12-22T09:50:56;61.83;;;28.93;;
45618;SDS011;31343;47.520;19.144;2022-12-22T09:53:23;65.20;;;30.77;;
45618;SDS011;31343;47.520;19.144;2022-12-22T09:55:49;55.50;;;28.52;;
45618;SDS011;31343;47.520;19.144;2022-12-22T10:00:49;58.80;;;28.05;;
45618;SDS011;31343;47.520;19.144;2022-12-22T10:03:29;54.53;;;25.95;;
45618;SDS011;31343;47.520;19.144;2022-12-22T10:08:37;62.90;;;30.42;;
45618;SDS011;31343;47.520;19.144;2022-12-22T10:11:04;62.90;;;29.63;;
45618;SDS011;31343;47.520;19.144;2022-12-22T10:13:31;62.53;;;29.75;;
45618;SDS011;31343;47.520;19.144;2022-12-22T10:15:57;56.80;;;29.40;;
45618;SDS011;31343;47.520;19.144;2022-12-22T10:18:25;55.50;;;26.50;;
45618;SDS011;31343;47.520;19.144;2022-12-22T10:21:11;54.63;;;28.13;;
45618;SDS011;31343;47.520;19.144;2022-12-22T10:23:47;54.28;;;28.23;;
45618;SDS011;31343;47.520;19.144;2022-12-22T10:28:56;51.83;;;30.10;;
45618;SDS011;31343;47.520;19.144;2022-12-22T10:31:32;60.25;;;28.88;;
45618;SDS011;31343;47.520;19.144;2022-12-22T10:34:18;57.88;;;29.52;;
45618;SDS011;31343;47.520;19.144;2022-12-22T10:36:49;58.92;;;28.13;;
45618;SDS011;31343;47.520;19.144;2022-12-22T10:39:27;60.75;;;31.17;;
45618;SDS011;31343;47.520;19.144;2022-12-22T10:42:29;59.72;;;31.15;;
45618;SDS011;31343;47.520;19.144;2022-12-22T10:44:48;69.28;;;30.92;;
45618;SDS011;31343;47.520;19.144;2022-12-22T10:47:15;59.38;;;30.13;;
45618;SDS011;31343;47.520;19.144;2022-12-22T10:49:57;55.88;;;27.42;;
45618;SDS011;31343;47.520;19.144;2022-12-22T10:52:26;55.40;;;26.95;;
45618;SDS011;31343;47.520;19.144;2022-12-22T10:54:56;55.63;;;29.67;;
45618;SDS011;31343;47.520;19.144;2022-12-22T10:58:15;57.35;;;27.27;;
45618;SDS011;31343;47.520;19.144;2022-12-22T11:00:40;56.78;;;26.83;;
45618;SDS011;31343;47.520;19.144;2022-12-22T11:03:08;66.38;;;29.90;;
45618;SDS011;31343;47.520;19.144;2022-12-22T11:05:38;59.67;;;29.63;;
45618;SDS011;31343;47.520;19.144;2022-12-22T11:08:14;56.33;;;29.10;;
45618;SDS011;31343;47.520;19.144;2022-12-22T11:10:51;60.22;;;28.83;;
45618;SDS011;31343;47.520;19.144;2022-12-22T11:16:16;56.88;;;28.17;;
45618;SDS011;31343;47.520;19.144;2022-12-22T11:18:53;51.83;;;27.35;;
45618;SDS011;31343;47.520;19.144;2022-12-22T11:24:38;51.17;;;26.65;;
45618;SDS011;31343;47.520;19.144;2022-12-22T11:30:07;58.67;;;26.73;;
45618;SDS011;31343;47.520;19.144;2022-12-22T11:40:57;52.50;;;27.52;;
45618;SDS011;31343;47.520;19.144;2022-12-22T11:52:04;53.75;;;26.98;;
45618;SDS011;31343;47.520;19.144;2022-12-22T12:00:07;62.63;;;30.50;;
45618;SDS011;31343;47.520;19.144;2022-12-22T12:07:50;60.22;;;28.95;;
45618;SDS011;31343;47.520;19.144;2022-12-22T12:15:44;56.30;;;28.23;;
45618;SDS011;31343;47.520;19.144;2022-12-22T12:18:24;56.60;;;28.67;;
45618;SDS011;31343;47.520;19.144;2022-12-22T12:21:21;56.78;;;27.42;;
45618;SDS011;31343;47.520;19.144;2022-12-22T12:24:12;56.30;;;28.00;;
45618;SDS011;31343;47.520;19.144;2022-12-22T12:26:48;51.75;;;28.38;;
45618;SDS011;31343;47.520;19.144;2022-12-22T12:29:28;58.00;;;29.13;;
45618;SDS011;31343;47.520;19.144;2022-12-22T12:32:04;66.18;;;30.48;;
45618;SDS011;31343;47.520;19.144;2022-12-22T12:34:40;59.67;;;29.00;;
45618;SDS011;31343;47.520;19.144;2022-12-22T12:37:19;55.53;;;29.33;;
45618;SDS011;31343;47.520;19.144;2022-12-22T12:42:33;57.55;;;27.70;;
45618;SDS011;31343;47.520;19.144;2022-12-22T12:45:28;62.77;;;28.63;;
45618;SDS011;31343;47.520;19.144;2022-12-22T12:50:46;68.07;;;29.95;;
45618;SDS011;31343;47.520;19.144;2022-12-22T12:53:13;54.10;;;28.67;;
45618;SDS011;31343;47.520;19.144;2022-12-22T12:58:44;57.45;;;27.63;;
45618;SDS011;31343;47.520;19.144;2022-12-22T13:01:04;60.10;;;30.20;;
45618;SDS011;31343;47.520;19.144;2022-12-22T13:03:56;56.58;;;28.27;;
45618;SDS011;31343;47.520;19.144;2022-12-22T13:09:10;56.00;;;27.25;;
45618;SDS011;31343;47.520;19.144;2022-12-22T13:11:42;55.60;;;27.73;;
45618;SDS011;31343;47.520;19.144;2022-12-22T13:14:08;57.65;;;28.15;;
45618;SDS011;31343;47.520;19.144;2022-12-22T13:16:35;61.15;;;31.45;;
45618;SDS011;31343;47.520;19.144;2022-12-22T13:19:05;60.03;;;30.42;;
45618;SDS011;31343;47.520;19.144;2022-12-22T13:21:40;53.55;;;28.02;;
45618;SDS011;31343;47.520;19.144;2022-12-22T13:24:24;56.30;;;29.52;;
45618;SDS011;31343;47.520;19.144;2022-12-22T13:26:54;63.13;;;31.40;;
45618;SDS011;31343;47.520;19.144;2022-12-22T13:29:31;65.05;;;32.58;;
45618;SDS011;31343;47.520;19.144;2022-12-22T13:32:13;58.28;;;28.33;;
45618;SDS011;31343;47.520;19.144;2022-12-22T13:34:46;59.67;;;30.88;;
45618;SDS011;31343;47.520;19.144;2022-12-22T13:37:19;55.08;;;29.08;;
45618;SDS011;31343;47.520;19.144;2022-12-22T13:47:43;71.30;;;33.05;;
45618;SDS011;31343;47.520;19.144;2022-12-22T13:50:25;68.00;;;33.90;;
45618;SDS011;31343;47.520;19.144;2022-12-22T13:52:55;60.53;;;29.70;;
45618;SDS011;31343;47.520;19.144;2022-12-22T13:55:23;60.47;;;30.35;;
45618;SDS011;31343;47.520;19.144;2022-12-22T13:57:52;69.53;;;34.95;;
45618;SDS011;31343;47.520;19.144;2022-12-22T14:00:23;66.20;;;31.83;;
45618;SDS011;31343;47.520;19.144;2022-12-22T14:02:51;68.50;;;31.38;;
45618;SDS011;31343;47.520;19.144;2022-12-22T14:05:18;60.13;;;28.77;;
45618;SDS011;31343;47.520;19.144;2022-12-22T14:07:58;60.75;;;30.20;;
45618;SDS011;31343;47.520;19.144;2022-12-22T14:10:29;60.30;;;30.48;;
45618;SDS011;31343;47.520;19.144;2022-12-22T14:13:11;57.55;;;26.95;;
45618;SDS011;31343;47.520;19.144;2022-12-22T14:15:41;57.83;;;27.05;;
45618;SDS011;31343;47.520;19.144;2022-12-22T14:18:11;59.92;;;27.92;;
45618;SDS011;31343;47.520;19.144;2022-12-22T14:20:44;61.70;;;30.63;;
45618;SDS011;31343;47.520;19.144;2022-12-22T14:25:59;66.55;;;30.35;;
45618;SDS011;31343;47.520;19.144;2022-12-22T14:28:31;68.40;;;29.50;;
45618;SDS011;31343;47.520;19.144;2022-12-22T14:30:59;60.63;;;29.83;;
45618;SDS011;31343;47.520;19.144;2022-12-22T14:33:29;61.08;;;29.77;;
45618;SDS011;31343;47.520;19.144;2022-12-22T14:36:03;59.17;;;29.30;;
45618;SDS011;31343;47.520;19.144;2022-12-22T14:38:43;59.47;;;28.05;;
45618;SDS011;31343;47.520;19.144;2022-12-22T14:41:40;64.43;;;32.30;;
45618;SDS011;31343;47.520;19.144;2022-12-22T14:52:43;62.72;;;30.33;;
45618;SDS011;31343;47.520;19.144;2022-12-22T14:57:51;62.88;;;33.78;;
45618;SDS011;31343;47.520;19.144;2022-12-22T15:00:39;64.35;;;31.00;;
45618;SDS011;31343;47.520;19.144;2022-12-22T15:05:55;66.93;;;32.45;;
45618;SDS011;31343;47.520;19.144;2022-12-22T15:08:49;68.82;;;31.52;;
45618;SDS011;31343;47.520;19.144;2022-12-22T15:11:18;67.72;;;32.17;;
45618;SDS011;31343;47.520;19.144;2022-12-22T15:13:46;65.07;;;30.90;;
45618;SDS011;31343;47.520;19.144;2022-12-22T15:16:14;69.22;;;34.60;;
45618;SDS011;31343;47.520;19.144;2022-12-22T15:18:43;67.15;;;32.28;;
45618;SDS011;31343;47.520;19.144;2022-12-22T15:21:10;71.22;;;34.28;;
45618;SDS011;31343;47.520;19.144;2022-12-22T15:23:38;76.82;;;34.65;;
45618;SDS011;31343;47.520;19.144;2022-12-22T15:26:04;70.75;;;35.92;;
45618;SDS011;31343;47.520;19.144;2022-12-22T15:28:30;69.15;;;34.13;;
45618;SDS011;31343;47.520;19.144;2022-12-22T15:30:57;77.53;;;35.33;;
45618;SDS011;31343;47.520;19.144;2022-12-22T15:33:23;69.75;;;35.83;;
45618;SDS011;31343;47.520;19.144;2022-12-22T15:35:50;86.25;;;37.05;;
45618;SDS011;31343;47.520;19.144;2022-12-22T15:38:17;88.63;;;38.55;;
45618;SDS011;31343;47.520;19.144;2022-12-22T15:40:44;82.57;;;40.05;;
45618;SDS011;31343;47.520;19.144;2022-12-22T15:43:10;81.35;;;38.83;;
45618;SDS011;31343;47.520;19.144;2022-12-22T15:45:36;78.93;;;39.17;;
45618;SDS011;31343;47.520;19.144;2022-12-22T15:48:03;79.20;;;39.47;;
45618;SDS011;31343;47.520;19.144;2022-12-22T15:50:35;80.95;;;37.97;;
45618;SDS011;31343;47.520;19.144;2022-12-22T15:53:04;76.53;;;37.78;;
45618;SDS011;31343;47.520;19.144;2022-12-22T15:55:34;83.55;;;41.83;;
45618;SDS011;31343;47.520;19.144;2022-12-22T15:58:07;81.93;;;37.67;;
45618;SDS011;31343;47.520;19.144;2022-12-22T16:00:37;77.55;;;39.60;;
45618;SDS011;31343;47.520;19.144;2022-12-22T16:03:03;83.95;;;39.45;;
45618;SDS011;31343;47.520;19.144;2022-12-22T16:05:30;87.80;;;39.92;;
45618;SDS011;31343;47.520;19.144;2022-12-22T16:07:59;85.32;;;37.88;;
45618;SDS011;31343;47.520;19.144;2022-12-22T16:10:26;86.57;;;40.90;;
45618;SDS011;31343;47.520;19.144;2022-12-22T16:12:54;82.07;;;40.25;;
45618;SDS011;31343;47.520;19.144;2022-12-22T16:15:29;79.32;;;37.80;;
45618;SDS011;31343;47.520;19.144;2022-12-22T16:17:57;85.65;;;38.72;;
45618;SDS011;31343;47.520;19.144;2022-12-22T16:20:24;86.38;;;38.15;;
45618;SDS011;31343;47.520;19.144;2022-12-22T16:22:52;93.28;;;41.60;;
45618;SDS011;31343;47.520;19.144;2022-12-22T16:25:20;83.25;;;39.03;;
45618;SDS011;31343;47.520;19.144;2022-12-22T16:27:50;83.78;;;42.08;;
45618;SDS011;31343;47.520;19.144;2022-12-22T16:30:18;82.35;;;39.35;;
45618;SDS011;31343;47.520;19.144;2022-12-22T16:32:46;83.85;;;39.10;;
45618;SDS011;31343;47.520;19.144;2022-12-22T16:35:13;86.28;;;39.92;;
45618;SDS011;31343;47.520;19.144;2022-12-22T16:37:41;90.57;;;39.80;;
45618;SDS011;31343;47.520;19.144;2022-12-22T16:40:07;94.50;;;43.30;;